Ionia, MI

4:06 PM EST on December 06, 2019 (GMT -0500)
Ionia

Weather History for KY70 - October, 2019

Change the Weather History Date:

Tuesday, October 22, 2019

  Actual Average (KGRR) Record (KGRR)
Temperature  
Mean Temperature 50 °F -  
Max Temperature 55 °F 58 °F 82 °F (1979)
Min Temperature 46 °F 37 °F 23 °F (1944)
Degree Days  
Heating Degree Days 14    
Moisture  
Dew Point 41 °F    
Average Humidity 73    
Maximum Humidity 82    
Minimum Humidity 60    
Precipitation  
Precipitation 0.03 in - - ()
Sea Level Pressure  
Sea Level Pressure 29.59 in    
Wind  
Wind Speed 14 mph ()    
Max Wind Speed 25 mph    
Max Gust Speed 34 mph    
Visibility 9.8 miles    
Events Rain    
Averages and records for this station are not official NWS values.
T = Trace of Precipitation, MM = Missing Value Source: Averaged Metar Reports

Daily Weather History Graph

Daily Weather History Graph

Search for Another Location

Airport or City:

Astronomy

Oct. 22, 2019 Rise Set
Actual Time 8:01 AM EDT 6:46 PM EDT
Civil Twilight 7:32 AM EDT 7:15 PM EDT
Nautical Twilight 6:59 AM EDT 7:48 PM EDT
Astronomical Twilight 6:27 AM EDT 8:21 PM EDT
Moon 12:58 AM EDT (10/22) 4:07 PM EDT (10/22)
Length of Visible Light 11h 42m
Length of Day
10h 45m
Last Quarter, 37% of the Moon is Illuminated
Oct 22
Last Quarter
Oct 27
New
Nov 4
First Quarter
Nov 12
Full
Nov 19
Last Quarter

Hourly Weather History & Observations

Time (EDT) Temp. Windchill Dew Point Humidity Pressure Visibility Wind Dir Wind Speed Gust Speed Precip Events Conditions
12:15 AM 55.2 °F - 45.9 °F 71% 29.59 in 10.0 mi SW 16.1 mph 21.9 mph N/A   Overcast
12:35 AM 54.5 °F - 45.0 °F 70% 29.59 in 10.0 mi SW 11.5 mph 18.4 mph N/A   Overcast
12:58 AM 53.6 °F - 45.1 °F 73% 29.59 in 10.0 mi SW 9.2 mph - N/A   Mostly Cloudy
1:16 AM 53.2 °F - 46.0 °F 77% 29.59 in 10.0 mi SSW 5.8 mph - N/A   Mostly Cloudy
1:35 AM 52.3 °F - 45.9 °F 79% 29.59 in 10.0 mi SSW 6.9 mph - N/A   Scattered Clouds
1:36 AM 52.3 °F - 45.7 °F 78% 29.59 in 10.0 mi SSW 8.1 mph - N/A   Scattered Clouds
1:55 AM 52.2 °F - 44.2 °F 74% 29.59 in 10.0 mi SSW 12.7 mph 19.6 mph N/A   Scattered Clouds
2:19 AM 51.3 °F - 43.0 °F 73% 29.60 in 10.0 mi South 8.1 mph - N/A   Clear
2:37 AM 51.1 °F - 41.9 °F 71% 29.59 in 10.0 mi South 12.7 mph - N/A   Clear
2:55 AM 50.9 °F - 40.6 °F 68% 29.59 in 10.0 mi South 11.5 mph - N/A   Clear
2:56 AM 50.9 °F - 40.6 °F 68% 29.59 in 10.0 mi South 11.5 mph - N/A   Clear
3:15 AM 50.4 °F - 40.3 °F 68% 29.59 in 10.0 mi South 9.2 mph - N/A   Clear
3:16 AM 50.4 °F - 40.3 °F 68% 29.59 in 10.0 mi South 9.2 mph - N/A   Clear
3:35 AM 50.0 °F - 40.1 °F 69% 29.58 in 10.0 mi South 11.5 mph - N/A   Clear
3:58 AM 49.5 °F - 40.1 °F 70% 29.57 in 10.0 mi South 10.4 mph - N/A   Clear
4:16 AM 49.1 °F - 40.1 °F 71% 29.55 in 10.0 mi SSE 11.5 mph - N/A   Clear
4:35 AM 48.6 °F - 40.3 °F 73% 29.55 in 10.0 mi South 10.4 mph - N/A   Clear
4:36 AM 48.4 °F - 40.3 °F 74% 29.55 in 10.0 mi South 10.4 mph - N/A   Clear
4:55 AM 48.4 °F - 40.5 °F 74% 29.55 in 10.0 mi South 10.4 mph - N/A   Clear
5:19 AM 48.7 °F - 40.3 °F 73% 29.55 in 10.0 mi South 13.8 mph 19.6 mph N/A   Clear
5:36 AM 48.6 °F - 40.1 °F 73% 29.55 in 10.0 mi South 10.4 mph - N/A   Clear
5:55 AM 48.4 °F - 40.1 °F 73% 29.54 in 10.0 mi South 9.2 mph - N/A   Clear
6:15 AM 48.2 °F - 40.3 °F 74% 29.54 in 10.0 mi South 12.7 mph 18.4 mph N/A   Clear
6:35 AM 48.7 °F - 40.1 °F 72% 29.53 in 10.0 mi South 13.8 mph 20.7 mph N/A   Clear
6:58 AM 49.1 °F - 40.1 °F 71% 29.53 in 10.0 mi South 15.0 mph 24.2 mph N/A   Clear
7:15 AM 49.5 °F - 40.1 °F 70% 29.53 in 10.0 mi SSW 15.0 mph 21.9 mph N/A   Clear
7:35 AM 49.3 °F - 40.1 °F 71% 29.53 in 10.0 mi SSW 15.0 mph 25.3 mph N/A   Clear
7:36 AM 49.3 °F - 40.1 °F 71% 29.53 in 10.0 mi South 15.0 mph 25.3 mph N/A   Clear
7:55 AM 49.1 °F - 40.1 °F 71% 29.53 in 10.0 mi South 17.3 mph 25.3 mph N/A   Clear
8:19 AM 49.3 °F - 39.7 °F 70% 29.53 in 10.0 mi South 12.7 mph 23.0 mph N/A   Mostly Cloudy
8:37 AM 50.2 °F - 39.9 °F 68% 29.53 in 10.0 mi South 16.1 mph 25.3 mph N/A   Overcast
8:55 AM 50.4 °F - 39.7 °F 67% 29.53 in 10.0 mi South 17.3 mph 23.0 mph N/A   Overcast
8:56 AM 50.4 °F - 39.9 °F 67% 29.53 in 10.0 mi South 15.0 mph 23.0 mph N/A   Overcast
9:15 AM 50.5 °F - 39.6 °F 66% 29.53 in 10.0 mi South 21.9 mph 28.8 mph N/A   Overcast
9:16 AM 50.5 °F - 39.6 °F 66% 29.53 in 10.0 mi South 23.0 mph 28.8 mph N/A   Overcast
9:35 AM 50.9 °F - 39.4 °F 65% 29.53 in 10.0 mi South 21.9 mph 27.6 mph N/A   Overcast
9:40 AM 51.1 °F - 39.6 °F 65% 29.53 in 10.0 mi South 21.9 mph 28.8 mph N/A   Overcast
9:58 AM 51.1 °F - 39.2 °F 64% 29.53 in 10.0 mi South 23.0 mph 31.1 mph N/A   Overcast
10:16 AM 51.1 °F - 39.2 °F 64% 29.53 in 10.0 mi SSW 18.4 mph 34.5 mph N/A   Overcast
10:35 AM 51.1 °F - 39.0 °F 63% 29.53 in 10.0 mi SSW 21.9 mph 31.1 mph N/A   Overcast
10:36 AM 51.1 °F - 39.2 °F 64% 29.53 in 10.0 mi SSW 20.7 mph 31.1 mph N/A   Overcast
10:55 AM 51.8 °F - 38.7 °F 61% 29.53 in 10.0 mi SSW 23.0 mph 31.1 mph N/A   Overcast
10:56 AM 51.8 °F - 38.7 °F 61% 29.53 in 10.0 mi SSW 24.2 mph 29.9 mph N/A   Overcast
11:19 AM 51.8 °F - 38.3 °F 60% 29.53 in 10.0 mi SSW 18.4 mph 28.8 mph N/A   Overcast
11:37 AM 51.6 °F - 38.1 °F 60% 29.53 in 10.0 mi SSW 21.9 mph 32.2 mph N/A   Overcast
11:55 AM 51.8 °F - 38.1 °F 60% 29.53 in 10.0 mi SSW 20.7 mph 32.2 mph N/A   Overcast
11:56 AM 51.8 °F - 38.1 °F 60% 29.53 in 10.0 mi SSW 21.9 mph 32.2 mph N/A   Overcast
12:15 PM 50.4 °F - 39.7 °F 67% 29.54 in 10.0 mi SSW 20.7 mph 32.2 mph N/A   Drizzle
12:35 PM 50.7 °F - 40.5 °F 68% 29.54 in 7.0 mi SSW 25.3 mph 33.4 mph N/A Rain Light Rain
12:58 PM 53.2 °F - 39.6 °F 60% 29.54 in 10.0 mi SSW 21.9 mph 34.5 mph N/A   Overcast
1:16 PM 51.8 °F - 39.9 °F 64% 29.55 in 10.0 mi SW 24.2 mph 33.4 mph N/A Rain Rain
1:35 PM 48.7 °F - 41.9 °F 77% 29.56 in 10.0 mi SW 19.6 mph 31.1 mph N/A Rain Light Rain
1:55 PM 49.3 °F - 42.8 °F 78% 29.56 in 10.0 mi SW 17.3 mph 25.3 mph N/A   Overcast
1:56 PM 49.3 °F - 42.8 °F 78% 29.56 in 10.0 mi SW 19.6 mph 25.3 mph N/A   Overcast
2:19 PM 49.5 °F - 42.4 °F 77% 29.56 in 10.0 mi SSW 21.9 mph 29.9 mph N/A   Overcast
2:37 PM 48.6 °F - 42.6 °F 80% 29.57 in 7.0 mi SW 20.7 mph 27.6 mph N/A   Drizzle
2:55 PM 48.4 °F - 43.0 °F 82% 29.57 in 10.0 mi SW 16.1 mph 27.6 mph N/A Rain Light Rain
2:56 PM 48.4 °F - 43.0 °F 82% 29.57 in 10.0 mi SW 15.0 mph 26.5 mph N/A Rain Light Rain
3:15 PM 48.6 °F - 43.2 °F 82% 29.58 in 5.0 mi SW 15.0 mph 23.0 mph 0.02 in Rain Rain
3:35 PM 48.7 °F - 43.2 °F 81% 29.58 in 10.0 mi SW 23.0 mph 33.4 mph 0.03 in   Overcast
3:40 PM 48.9 °F - 43.0 °F 80% 29.58 in 10.0 mi SW 21.9 mph 27.6 mph 0.03 in   Overcast
3:58 PM 49.1 °F - 43.0 °F 79% 29.58 in 10.0 mi SW 21.9 mph 29.9 mph 0.03 in Rain Light Rain
4:16 PM 48.4 °F - 42.6 °F 80% 29.59 in 10.0 mi North - - N/A   Overcast
4:35 PM 48.6 °F - 42.3 °F 79% 29.60 in 10.0 mi SW 19.6 mph - N/A   Overcast
4:55 PM 48.6 °F - 41.9 °F 78% 29.61 in 10.0 mi SW 18.4 mph 28.8 mph N/A   Overcast
4:56 PM 48.6 °F - 41.9 °F 78% 29.61 in 10.0 mi SW 19.6 mph 28.8 mph N/A   Overcast
5:19 PM 47.7 °F - 42.3 °F 82% 29.62 in 10.0 mi SW 18.4 mph 29.9 mph N/A   Overcast
5:37 PM 47.5 °F - 41.5 °F 80% 29.62 in 10.0 mi SW 20.7 mph - N/A   Overcast
5:55 PM 46.8 °F - 41.2 °F 81% 29.63 in 10.0 mi SW 18.4 mph 31.1 mph N/A Rain Light Rain
5:56 PM 46.8 °F - 41.4 °F 81% 29.63 in 10.0 mi SW 17.3 mph 31.1 mph N/A Rain Light Rain
6:15 PM 47.3 °F - 41.7 °F 81% 29.64 in 10.0 mi SW 16.1 mph 26.5 mph N/A   Overcast
6:16 PM 47.3 °F - 41.5 °F 80% 29.64 in 10.0 mi SW 17.3 mph 26.5 mph N/A   Overcast
6:35 PM 46.9 °F - 41.0 °F 80% 29.64 in 7.0 mi SW 16.1 mph 25.3 mph N/A Rain Light Rain
6:40 PM 46.8 °F - 41.2 °F 81% 29.64 in 7.0 mi SW 17.3 mph 23.0 mph N/A Rain Light Rain
6:58 PM 47.3 °F - 40.3 °F 77% 29.65 in 10.0 mi SW 18.4 mph 26.5 mph N/A   Overcast
7:16 PM 47.3 °F - 40.1 °F 76% 29.66 in 10.0 mi SSW 13.8 mph 21.9 mph N/A   Overcast
7:35 PM 47.3 °F - 40.1 °F 76% 29.67 in 10.0 mi SSW 16.1 mph 21.9 mph N/A Rain Rain
7:36 PM 47.3 °F - 39.9 °F 76% 29.67 in 10.0 mi SSW 15.0 mph 21.9 mph N/A Rain Rain
7:55 PM 47.3 °F - 39.6 °F 74% 29.67 in 10.0 mi SSW 13.8 mph 21.9 mph N/A   Overcast
7:56 PM 47.3 °F - 39.4 °F 74% 29.67 in 10.0 mi SSW 15.0 mph 19.6 mph N/A   Overcast
8:19 PM 47.7 °F - 38.8 °F 71% 29.67 in 10.0 mi SW 15.0 mph 20.7 mph N/A   Overcast
8:37 PM 47.5 °F - 39.2 °F 73% 29.68 in 10.0 mi WSW 17.3 mph 31.1 mph N/A   Drizzle
8:55 PM 47.1 °F - 39.2 °F 74% 29.69 in 10.0 mi SW 18.4 mph 27.6 mph N/A Rain Light Rain
8:56 PM 47.1 °F - 39.2 °F 74% 29.69 in 10.0 mi SW 17.3 mph 27.6 mph N/A Rain Light Rain
9:15 PM 46.4 °F 40.7 °F 40.3 °F 79% 29.69 in 10.0 mi WSW 12.7 mph - N/A Rain Light Rain
9:16 PM 46.4 °F 40.7 °F 40.3 °F 79% 29.69 in 10.0 mi WSW 12.7 mph - N/A Rain Light Rain
9:39 PM 46.4 °F 40.7 °F 40.1 °F 79% 29.69 in 10.0 mi SW 12.7 mph 16.1 mph N/A   Overcast
9:57 PM 47.3 °F - 39.2 °F 73% 29.69 in 10.0 mi SW 16.1 mph 20.7 mph N/A   Overcast
10:15 PM 48.0 °F - 37.8 °F 68% 29.70 in 10.0 mi SW 15.0 mph 26.5 mph N/A   Overcast
10:16 PM 47.8 °F - 37.8 °F 68% 29.70 in 10.0 mi SW 16.1 mph 26.5 mph N/A   Overcast
10:35 PM 47.7 °F - 37.9 °F 69% 29.70 in 10.0 mi WSW 19.6 mph 26.5 mph N/A   Drizzle
10:36 PM 47.7 °F - 37.9 °F 69% 29.70 in 10.0 mi SW 19.6 mph 26.5 mph N/A   Drizzle
10:55 PM 46.9 °F - 39.0 °F 74% 29.71 in 10.0 mi SW 19.6 mph 27.6 mph N/A   Light Drizzle
11:18 PM 46.6 °F - 39.9 °F 78% 29.70 in 10.0 mi SW 13.8 mph 20.7 mph N/A   Drizzle
11:36 PM 46.4 °F 39.8 °F 40.1 °F 79% 29.70 in 10.0 mi SW 16.1 mph 20.7 mph N/A Rain Light Rain
11:55 PM 46.2 °F 41.2 °F 41.0 °F 82% 29.71 in 10.0 mi West 10.4 mph - N/A Rain Light Rain